sensor_id;sensor_type;location;lat;lon;timestamp;P1;durP1;ratioP1;P2;durP2;ratioP2
23232;SDS011;11785;49.500;8.288;2023-12-29T00:00:34;3.42;;;2.38;;
23232;SDS011;11785;49.500;8.288;2023-12-29T00:02:59;3.15;;;2.20;;
23232;SDS011;11785;49.500;8.288;2023-12-29T00:05:25;2.33;;;2.00;;
23232;SDS011;11785;49.500;8.288;2023-12-29T00:07:52;4.57;;;2.20;;
23232;SDS011;11785;49.500;8.288;2023-12-29T00:10:17;3.03;;;2.22;;
23232;SDS011;11785;49.500;8.288;2023-12-29T00:12:43;2.53;;;2.13;;
23232;SDS011;11785;49.500;8.288;2023-12-29T00:15:09;4.82;;;2.25;;
23232;SDS011;11785;49.500;8.288;2023-12-29T00:17:34;3.10;;;2.13;;
23232;SDS011;11785;49.500;8.288;2023-12-29T00:20:05;2.88;;;2.20;;
23232;SDS011;11785;49.500;8.288;2023-12-29T00:22:32;3.10;;;2.28;;
23232;SDS011;11785;49.500;8.288;2023-12-29T00:24:58;3.17;;;2.47;;
23232;SDS011;11785;49.500;8.288;2023-12-29T00:27:24;3.45;;;2.58;;
23232;SDS011;11785;49.500;8.288;2023-12-29T00:29:49;3.53;;;2.38;;
23232;SDS011;11785;49.500;8.288;2023-12-29T00:32:15;2.65;;;2.10;;
23232;SDS011;11785;49.500;8.288;2023-12-29T00:34:40;3.42;;;2.25;;
23232;SDS011;11785;49.500;8.288;2023-12-29T00:37:06;1.90;;;1.67;;
23232;SDS011;11785;49.500;8.288;2023-12-29T00:39:33;3.90;;;2.25;;
23232;SDS011;11785;49.500;8.288;2023-12-29T00:42:03;2.83;;;2.17;;
23232;SDS011;11785;49.500;8.288;2023-12-29T00:44:29;3.22;;;2.05;;
23232;SDS011;11785;49.500;8.288;2023-12-29T00:46:55;4.30;;;2.08;;
23232;SDS011;11785;49.500;8.288;2023-12-29T00:49:20;2.45;;;2.08;;
23232;SDS011;11785;49.500;8.288;2023-12-29T00:51:47;5.13;;;2.22;;
23232;SDS011;11785;49.500;8.288;2023-12-29T00:54:13;2.35;;;2.10;;
23232;SDS011;11785;49.500;8.288;2023-12-29T00:56:38;3.88;;;2.08;;
23232;SDS011;11785;49.500;8.288;2023-12-29T00:59:04;4.82;;;2.08;;
23232;SDS011;11785;49.500;8.288;2023-12-29T01:01:32;2.90;;;2.20;;
23232;SDS011;11785;49.500;8.288;2023-12-29T01:03:59;4.60;;;2.58;;
23232;SDS011;11785;49.500;8.288;2023-12-29T01:06:24;4.63;;;1.90;;
23232;SDS011;11785;49.500;8.288;2023-12-29T01:08:50;2.45;;;2.03;;
23232;SDS011;11785;49.500;8.288;2023-12-29T01:11:15;4.65;;;1.92;;
23232;SDS011;11785;49.500;8.288;2023-12-29T01:13:41;2.58;;;1.95;;
23232;SDS011;11785;49.500;8.288;2023-12-29T01:16:07;2.00;;;1.80;;
23232;SDS011;11785;49.500;8.288;2023-12-29T01:18:33;6.00;;;2.10;;
23232;SDS011;11785;49.500;8.288;2023-12-29T01:20:58;3.50;;;1.77;;
23232;SDS011;11785;49.500;8.288;2023-12-29T01:23:24;2.08;;;1.83;;
23232;SDS011;11785;49.500;8.288;2023-12-29T01:25:49;3.13;;;2.40;;
23232;SDS011;11785;49.500;8.288;2023-12-29T01:28:15;4.10;;;2.40;;
23232;SDS011;11785;49.500;8.288;2023-12-29T01:30:40;4.20;;;2.50;;
23232;SDS011;11785;49.500;8.288;2023-12-29T01:33:06;3.33;;;2.60;;
23232;SDS011;11785;49.500;8.288;2023-12-29T01:35:32;4.95;;;3.15;;
23232;SDS011;11785;49.500;8.288;2023-12-29T01:37:57;5.85;;;2.70;;
23232;SDS011;11785;49.500;8.288;2023-12-29T01:40:23;5.18;;;2.80;;
23232;SDS011;11785;49.500;8.288;2023-12-29T01:42:48;3.53;;;2.55;;
23232;SDS011;11785;49.500;8.288;2023-12-29T01:45:21;4.68;;;2.67;;
23232;SDS011;11785;49.500;8.288;2023-12-29T01:47:48;6.05;;;3.08;;
23232;SDS011;11785;49.500;8.288;2023-12-29T01:50:16;5.32;;;3.00;;
23232;SDS011;11785;49.500;8.288;2023-12-29T01:52:45;5.43;;;2.63;;
23232;SDS011;11785;49.500;8.288;2023-12-29T01:55:14;3.10;;;2.65;;
23232;SDS011;11785;49.500;8.288;2023-12-29T01:57:43;3.38;;;2.45;;
23232;SDS011;11785;49.500;8.288;2023-12-29T02:00:10;3.83;;;2.45;;
23232;SDS011;11785;49.500;8.288;2023-12-29T02:02:38;3.50;;;2.40;;
23232;SDS011;11785;49.500;8.288;2023-12-29T02:05:04;4.30;;;2.42;;
23232;SDS011;11785;49.500;8.288;2023-12-29T02:07:30;6.43;;;2.83;;
23232;SDS011;11785;49.500;8.288;2023-12-29T02:09:57;4.93;;;2.30;;
23232;SDS011;11785;49.500;8.288;2023-12-29T02:12:24;6.47;;;2.47;;
23232;SDS011;11785;49.500;8.288;2023-12-29T02:14:50;3.78;;;2.40;;
23232;SDS011;11785;49.500;8.288;2023-12-29T02:17:22;2.92;;;2.00;;
23232;SDS011;11785;49.500;8.288;2023-12-29T02:19:51;3.15;;;2.17;;
23232;SDS011;11785;49.500;8.288;2023-12-29T02:22:17;2.92;;;2.05;;
23232;SDS011;11785;49.500;8.288;2023-12-29T02:24:46;3.08;;;1.90;;
23232;SDS011;11785;49.500;8.288;2023-12-29T02:32:46;2.70;;;1.75;;
23232;SDS011;11785;49.500;8.288;2023-12-29T02:35:14;2.13;;;1.92;;
23232;SDS011;11785;49.500;8.288;2023-12-29T02:37:48;2.30;;;2.10;;
23232;SDS011;11785;49.500;8.288;2023-12-29T02:40:14;2.35;;;1.85;;
23232;SDS011;11785;49.500;8.288;2023-12-29T02:42:47;3.38;;;1.90;;
23232;SDS011;11785;49.500;8.288;2023-12-29T02:45:17;4.63;;;2.13;;
23232;SDS011;11785;49.500;8.288;2023-12-29T02:47:43;3.60;;;2.05;;
23232;SDS011;11785;49.500;8.288;2023-12-29T02:50:09;2.53;;;1.50;;
23232;SDS011;11785;49.500;8.288;2023-12-29T02:52:35;3.17;;;1.90;;
23232;SDS011;11785;49.500;8.288;2023-12-29T02:55:01;2.83;;;1.80;;
23232;SDS011;11785;49.500;8.288;2023-12-29T02:57:27;2.95;;;1.60;;
23232;SDS011;11785;49.500;8.288;2023-12-29T02:59:53;2.35;;;1.90;;
23232;SDS011;11785;49.500;8.288;2023-12-29T03:02:19;2.13;;;1.80;;
23232;SDS011;11785;49.500;8.288;2023-12-29T03:04:44;3.63;;;1.58;;
23232;SDS011;11785;49.500;8.288;2023-12-29T03:07:10;4.50;;;1.45;;
23232;SDS011;11785;49.500;8.288;2023-12-29T03:09:36;1.98;;;1.50;;
23232;SDS011;11785;49.500;8.288;2023-12-29T03:12:02;2.50;;;1.52;;
23232;SDS011;11785;49.500;8.288;2023-12-29T03:14:28;1.52;;;1.40;;
23232;SDS011;11785;49.500;8.288;2023-12-29T03:16:53;4.63;;;1.75;;
23232;SDS011;11785;49.500;8.288;2023-12-29T03:19:19;2.47;;;1.58;;
23232;SDS011;11785;49.500;8.288;2023-12-29T03:21:44;2.38;;;1.40;;
23232;SDS011;11785;49.500;8.288;2023-12-29T03:24:10;2.50;;;1.45;;
23232;SDS011;11785;49.500;8.288;2023-12-29T03:26:35;1.90;;;1.38;;
23232;SDS011;11785;49.500;8.288;2023-12-29T03:29:01;6.20;;;1.67;;
23232;SDS011;11785;49.500;8.288;2023-12-29T03:31:26;1.67;;;1.58;;
23232;SDS011;11785;49.500;8.288;2023-12-29T03:33:52;2.58;;;1.30;;
23232;SDS011;11785;49.500;8.288;2023-12-29T03:36:18;2.45;;;1.50;;
23232;SDS011;11785;49.500;8.288;2023-12-29T03:38:43;2.58;;;1.48;;
23232;SDS011;11785;49.500;8.288;2023-12-29T03:41:09;2.88;;;1.65;;
23232;SDS011;11785;49.500;8.288;2023-12-29T03:43:34;1.98;;;1.58;;
23232;SDS011;11785;49.500;8.288;2023-12-29T03:46:00;2.13;;;1.38;;
23232;SDS011;11785;49.500;8.288;2023-12-29T03:48:25;2.70;;;1.70;;
23232;SDS011;11785;49.500;8.288;2023-12-29T03:50:51;1.92;;;1.60;;
23232;SDS011;11785;49.500;8.288;2023-12-29T03:53:16;2.28;;;1.38;;
23232;SDS011;11785;49.500;8.288;2023-12-29T03:55:44;3.25;;;1.75;;
23232;SDS011;11785;49.500;8.288;2023-12-29T03:58:09;2.17;;;1.70;;
23232;SDS011;11785;49.500;8.288;2023-12-29T04:00:36;2.38;;;1.60;;
23232;SDS011;11785;49.500;8.288;2023-12-29T04:03:03;3.15;;;1.60;;
23232;SDS011;11785;49.500;8.288;2023-12-29T04:05:28;3.35;;;1.42;;
23232;SDS011;11785;49.500;8.288;2023-12-29T04:07:54;2.58;;;1.48;;
23232;SDS011;11785;49.500;8.288;2023-12-29T04:10:19;3.28;;;1.60;;
23232;SDS011;11785;49.500;8.288;2023-12-29T04:12:45;4.15;;;1.75;;
23232;SDS011;11785;49.500;8.288;2023-12-29T04:15:11;2.72;;;1.50;;
23232;SDS011;11785;49.500;8.288;2023-12-29T04:17:36;2.80;;;1.73;;
23232;SDS011;11785;49.500;8.288;2023-12-29T04:20:02;1.70;;;1.60;;
23232;SDS011;11785;49.500;8.288;2023-12-29T04:22:28;2.70;;;1.70;;
23232;SDS011;11785;49.500;8.288;2023-12-29T04:24:54;3.65;;;1.73;;
23232;SDS011;11785;49.500;8.288;2023-12-29T04:27:19;1.83;;;1.45;;
23232;SDS011;11785;49.500;8.288;2023-12-29T04:29:46;2.17;;;1.70;;
23232;SDS011;11785;49.500;8.288;2023-12-29T04:32:11;2.88;;;1.92;;
23232;SDS011;11785;49.500;8.288;2023-12-29T04:34:37;3.50;;;1.65;;
23232;SDS011;11785;49.500;8.288;2023-12-29T04:37:02;2.85;;;1.58;;
23232;SDS011;11785;49.500;8.288;2023-12-29T04:39:28;3.85;;;2.08;;
23232;SDS011;11785;49.500;8.288;2023-12-29T04:41:53;3.22;;;1.85;;
23232;SDS011;11785;49.500;8.288;2023-12-29T04:44:19;3.35;;;2.00;;
23232;SDS011;11785;49.500;8.288;2023-12-29T04:46:44;2.45;;;1.70;;
23232;SDS011;11785;49.500;8.288;2023-12-29T04:49:10;2.53;;;1.80;;
23232;SDS011;11785;49.500;8.288;2023-12-29T04:51:36;2.70;;;1.65;;
23232;SDS011;11785;49.500;8.288;2023-12-29T04:54:02;2.08;;;1.75;;
23232;SDS011;11785;49.500;8.288;2023-12-29T04:56:27;1.35;;;1.25;;
23232;SDS011;11785;49.500;8.288;2023-12-29T04:58:53;3.15;;;1.73;;
23232;SDS011;11785;49.500;8.288;2023-12-29T05:01:18;4.90;;;1.60;;
23232;SDS011;11785;49.500;8.288;2023-12-29T05:03:44;2.88;;;1.75;;
23232;SDS011;11785;49.500;8.288;2023-12-29T05:06:09;2.65;;;1.92;;
23232;SDS011;11785;49.500;8.288;2023-12-29T05:08:35;2.25;;;1.90;;
23232;SDS011;11785;49.500;8.288;2023-12-29T05:11:01;5.40;;;1.77;;
23232;SDS011;11785;49.500;8.288;2023-12-29T05:13:26;2.40;;;2.08;;
23232;SDS011;11785;49.500;8.288;2023-12-29T05:15:52;3.65;;;1.90;;
23232;SDS011;11785;49.500;8.288;2023-12-29T05:18:17;2.97;;;2.28;;
23232;SDS011;11785;49.500;8.288;2023-12-29T05:20:43;2.22;;;1.60;;
23232;SDS011;11785;49.500;8.288;2023-12-29T05:23:08;5.50;;;1.95;;
23232;SDS011;11785;49.500;8.288;2023-12-29T05:25:34;2.75;;;1.63;;
23232;SDS011;11785;49.500;8.288;2023-12-29T05:27:59;5.38;;;2.25;;
23232;SDS011;11785;49.500;8.288;2023-12-29T05:30:25;6.47;;;1.98;;
23232;SDS011;11785;49.500;8.288;2023-12-29T05:32:52;4.32;;;1.90;;
23232;SDS011;11785;49.500;8.288;2023-12-29T05:35:18;3.90;;;2.00;;
23232;SDS011;11785;49.500;8.288;2023-12-29T05:37:43;2.58;;;2.08;;
23232;SDS011;11785;49.500;8.288;2023-12-29T05:40:09;2.65;;;1.70;;
23232;SDS011;11785;49.500;8.288;2023-12-29T05:42:35;3.60;;;2.20;;
23232;SDS011;11785;49.500;8.288;2023-12-29T05:45:00;1.60;;;1.50;;
23232;SDS011;11785;49.500;8.288;2023-12-29T05:47:26;2.95;;;1.77;;
23232;SDS011;11785;49.500;8.288;2023-12-29T05:49:52;2.78;;;1.75;;
23232;SDS011;11785;49.500;8.288;2023-12-29T05:52:17;2.88;;;1.80;;
23232;SDS011;11785;49.500;8.288;2023-12-29T05:54:43;3.83;;;1.35;;
23232;SDS011;11785;49.500;8.288;2023-12-29T05:57:08;2.08;;;1.50;;
23232;SDS011;11785;49.500;8.288;2023-12-29T05:59:34;2.00;;;1.70;;
23232;SDS011;11785;49.500;8.288;2023-12-29T06:01:59;3.78;;;1.52;;
23232;SDS011;11785;49.500;8.288;2023-12-29T06:04:25;5.38;;;1.73;;
23232;SDS011;11785;49.500;8.288;2023-12-29T06:06:50;2.83;;;1.50;;
23232;SDS011;11785;49.500;8.288;2023-12-29T06:09:16;2.85;;;1.67;;
23232;SDS011;11785;49.500;8.288;2023-12-29T06:11:42;2.25;;;1.52;;
23232;SDS011;11785;49.500;8.288;2023-12-29T06:14:08;2.25;;;1.55;;
23232;SDS011;11785;49.500;8.288;2023-12-29T06:16:33;2.25;;;1.52;;
23232;SDS011;11785;49.500;8.288;2023-12-29T06:18:59;2.88;;;1.42;;
23232;SDS011;11785;49.500;8.288;2023-12-29T06:21:25;2.33;;;1.55;;
23232;SDS011;11785;49.500;8.288;2023-12-29T06:23:50;1.75;;;1.30;;
23232;SDS011;11785;49.500;8.288;2023-12-29T06:26:19;2.00;;;1.33;;
23232;SDS011;11785;49.500;8.288;2023-12-29T06:28:46;1.85;;;1.33;;
23232;SDS011;11785;49.500;8.288;2023-12-29T06:31:12;1.23;;;1.10;;
23232;SDS011;11785;49.500;8.288;2023-12-29T06:33:41;2.67;;;1.40;;
23232;SDS011;11785;49.500;8.288;2023-12-29T06:36:07;2.65;;;1.52;;
23232;SDS011;11785;49.500;8.288;2023-12-29T06:38:33;2.10;;;1.20;;
23232;SDS011;11785;49.500;8.288;2023-12-29T06:41:02;2.17;;;1.10;;
23232;SDS011;11785;49.500;8.288;2023-12-29T06:43:31;1.08;;;1.08;;
23232;SDS011;11785;49.500;8.288;2023-12-29T06:45:57;1.48;;;1.38;;
23232;SDS011;11785;49.500;8.288;2023-12-29T06:48:23;2.13;;;1.23;;
23232;SDS011;11785;49.500;8.288;2023-12-29T06:50:48;2.47;;;1.60;;
23232;SDS011;11785;49.500;8.288;2023-12-29T06:53:14;3.03;;;1.27;;
23232;SDS011;11785;49.500;8.288;2023-12-29T06:55:39;2.17;;;1.23;;
23232;SDS011;11785;49.500;8.288;2023-12-29T06:58:05;3.53;;;1.20;;
23232;SDS011;11785;49.500;8.288;2023-12-29T07:00:31;1.60;;;1.50;;
23232;SDS011;11785;49.500;8.288;2023-12-29T07:02:56;3.38;;;1.27;;
23232;SDS011;11785;49.500;8.288;2023-12-29T07:05:22;1.25;;;1.02;;
23232;SDS011;11785;49.500;8.288;2023-12-29T07:07:47;1.58;;;1.10;;
23232;SDS011;11785;49.500;8.288;2023-12-29T07:10:13;3.60;;;1.30;;
23232;SDS011;11785;49.500;8.288;2023-12-29T07:12:40;1.92;;;1.17;;
23232;SDS011;11785;49.500;8.288;2023-12-29T07:15:06;2.70;;;1.20;;
23232;SDS011;11785;49.500;8.288;2023-12-29T07:17:31;2.78;;;1.23;;
23232;SDS011;11785;49.500;8.288;2023-12-29T07:19:57;1.63;;;0.98;;
23232;SDS011;11785;49.500;8.288;2023-12-29T07:22:23;2.38;;;1.00;;
23232;SDS011;11785;49.500;8.288;2023-12-29T07:24:48;2.53;;;1.10;;
23232;SDS011;11785;49.500;8.288;2023-12-29T07:27:14;1.70;;;1.08;;
23232;SDS011;11785;49.500;8.288;2023-12-29T07:29:40;2.95;;;1.00;;
23232;SDS011;11785;49.500;8.288;2023-12-29T07:32:06;3.08;;;1.00;;
23232;SDS011;11785;49.500;8.288;2023-12-29T07:34:31;4.53;;;1.27;;
23232;SDS011;11785;49.500;8.288;2023-12-29T07:36:57;2.05;;;1.10;;
23232;SDS011;11785;49.500;8.288;2023-12-29T07:39:25;3.03;;;1.17;;
23232;SDS011;11785;49.500;8.288;2023-12-29T07:41:51;3.25;;;1.52;;
23232;SDS011;11785;49.500;8.288;2023-12-29T07:44:17;1.75;;;1.33;;
23232;SDS011;11785;49.500;8.288;2023-12-29T07:46:43;4.15;;;1.20;;
23232;SDS011;11785;49.500;8.288;2023-12-29T07:49:09;1.02;;;0.93;;
23232;SDS011;11785;49.500;8.288;2023-12-29T07:51:39;2.30;;;1.27;;
23232;SDS011;11785;49.500;8.288;2023-12-29T07:54:08;2.05;;;1.10;;
23232;SDS011;11785;49.500;8.288;2023-12-29T07:56:34;1.25;;;0.90;;
23232;SDS011;11785;49.500;8.288;2023-12-29T07:59:01;2.17;;;1.00;;
23232;SDS011;11785;49.500;8.288;2023-12-29T08:01:26;3.75;;;1.48;;
23232;SDS011;11785;49.500;8.288;2023-12-29T08:03:52;2.58;;;1.10;;
23232;SDS011;11785;49.500;8.288;2023-12-29T08:06:17;1.58;;;1.20;;
23232;SDS011;11785;49.500;8.288;2023-12-29T08:08:43;2.65;;;1.27;;
23232;SDS011;11785;49.500;8.288;2023-12-29T08:11:15;2.28;;;1.10;;
23232;SDS011;11785;49.500;8.288;2023-12-29T08:13:43;1.65;;;1.02;;
23232;SDS011;11785;49.500;8.288;2023-12-29T08:16:09;3.05;;;0.98;;
23232;SDS011;11785;49.500;8.288;2023-12-29T08:18:36;2.97;;;1.27;;
23232;SDS011;11785;49.500;8.288;2023-12-29T08:21:01;5.32;;;1.13;;
23232;SDS011;11785;49.500;8.288;2023-12-29T08:23:27;2.67;;;1.17;;
23232;SDS011;11785;49.500;8.288;2023-12-29T08:25:53;2.10;;;1.15;;
23232;SDS011;11785;49.500;8.288;2023-12-29T08:28:18;3.25;;;1.38;;
23232;SDS011;11785;49.500;8.288;2023-12-29T08:30:44;1.70;;;1.10;;
23232;SDS011;11785;49.500;8.288;2023-12-29T08:33:12;1.67;;;1.20;;
23232;SDS011;11785;49.500;8.288;2023-12-29T08:35:41;3.42;;;1.02;;
23232;SDS011;11785;49.500;8.288;2023-12-29T08:38:07;3.22;;;1.20;;
23232;SDS011;11785;49.500;8.288;2023-12-29T08:40:33;5.05;;;1.55;;
23232;SDS011;11785;49.500;8.288;2023-12-29T08:42:58;1.48;;;1.00;;
23232;SDS011;11785;49.500;8.288;2023-12-29T08:45:26;1.85;;;0.73;;
23232;SDS011;11785;49.500;8.288;2023-12-29T08:47:52;5.80;;;1.35;;
23232;SDS011;11785;49.500;8.288;2023-12-29T08:50:17;2.80;;;1.10;;
23232;SDS011;11785;49.500;8.288;2023-12-29T08:52:43;4.60;;;1.00;;
23232;SDS011;11785;49.500;8.288;2023-12-29T08:55:08;2.60;;;1.15;;
23232;SDS011;11785;49.500;8.288;2023-12-29T08:57:34;4.03;;;1.10;;
23232;SDS011;11785;49.500;8.288;2023-12-29T09:00:00;2.13;;;1.00;;
23232;SDS011;11785;49.500;8.288;2023-12-29T09:02:26;3.47;;;1.40;;
23232;SDS011;11785;49.500;8.288;2023-12-29T09:05:08;5.20;;;1.63;;
23232;SDS011;11785;49.500;8.288;2023-12-29T09:07:34;5.95;;;2.10;;
23232;SDS011;11785;49.500;8.288;2023-12-29T09:09:59;2.47;;;1.67;;
23232;SDS011;11785;49.500;8.288;2023-12-29T09:12:27;4.75;;;1.10;;
23232;SDS011;11785;49.500;8.288;2023-12-29T09:14:53;1.30;;;1.00;;
23232;SDS011;11785;49.500;8.288;2023-12-29T09:17:18;2.10;;;1.08;;
23232;SDS011;11785;49.500;8.288;2023-12-29T09:19:45;1.25;;;0.90;;
23232;SDS011;11785;49.500;8.288;2023-12-29T09:22:11;1.38;;;1.00;;
23232;SDS011;11785;49.500;8.288;2023-12-29T09:24:37;3.10;;;1.20;;
23232;SDS011;11785;49.500;8.288;2023-12-29T09:27:02;1.58;;;1.20;;
23232;SDS011;11785;49.500;8.288;2023-12-29T09:29:28;1.20;;;1.00;;
23232;SDS011;11785;49.500;8.288;2023-12-29T09:31:55;3.40;;;1.30;;
23232;SDS011;11785;49.500;8.288;2023-12-29T09:34:20;1.77;;;1.20;;
23232;SDS011;11785;49.500;8.288;2023-12-29T09:36:46;1.52;;;1.10;;
23232;SDS011;11785;49.500;8.288;2023-12-29T09:39:11;3.17;;;1.00;;
23232;SDS011;11785;49.500;8.288;2023-12-29T09:41:37;2.72;;;1.10;;
23232;SDS011;11785;49.500;8.288;2023-12-29T09:44:07;4.40;;;1.00;;
23232;SDS011;11785;49.500;8.288;2023-12-29T09:46:39;2.63;;;1.27;;
23232;SDS011;11785;49.500;8.288;2023-12-29T09:49:07;1.85;;;1.10;;
23232;SDS011;11785;49.500;8.288;2023-12-29T09:51:34;1.25;;;1.15;;
23232;SDS011;11785;49.500;8.288;2023-12-29T09:54:01;2.15;;;1.10;;
23232;SDS011;11785;49.500;8.288;2023-12-29T09:56:27;2.42;;;1.00;;
23232;SDS011;11785;49.500;8.288;2023-12-29T09:58:53;1.88;;;1.25;;
23232;SDS011;11785;49.500;8.288;2023-12-29T10:01:20;3.60;;;1.20;;
23232;SDS011;11785;49.500;8.288;2023-12-29T10:03:49;1.70;;;1.05;;
23232;SDS011;11785;49.500;8.288;2023-12-29T10:06:16;3.15;;;1.00;;
23232;SDS011;11785;49.500;8.288;2023-12-29T10:08:51;4.07;;;0.90;;
23232;SDS011;11785;49.500;8.288;2023-12-29T10:11:19;2.88;;;1.10;;
23232;SDS011;11785;49.500;8.288;2023-12-29T10:13:47;0.73;;;0.73;;
23232;SDS011;11785;49.500;8.288;2023-12-29T10:16:18;1.40;;;0.80;;
23232;SDS011;11785;49.500;8.288;2023-12-29T10:21:57;2.03;;;0.87;;
23232;SDS011;11785;49.500;8.288;2023-12-29T10:24:29;2.92;;;0.85;;
23232;SDS011;11785;49.500;8.288;2023-12-29T10:26:54;1.63;;;0.85;;
23232;SDS011;11785;49.500;8.288;2023-12-29T10:29:20;1.25;;;0.80;;
23232;SDS011;11785;49.500;8.288;2023-12-29T10:31:46;2.05;;;1.05;;
23232;SDS011;11785;49.500;8.288;2023-12-29T10:34:22;2.38;;;0.98;;
23232;SDS011;11785;49.500;8.288;2023-12-29T10:36:55;1.63;;;0.90;;
23232;SDS011;11785;49.500;8.288;2023-12-29T10:39:21;2.38;;;0.80;;
23232;SDS011;11785;49.500;8.288;2023-12-29T10:41:48;3.55;;;1.10;;
23232;SDS011;11785;49.500;8.288;2023-12-29T10:44:14;1.13;;;0.70;;
23232;SDS011;11785;49.500;8.288;2023-12-29T10:46:40;4.30;;;1.08;;
23232;SDS011;11785;49.500;8.288;2023-12-29T10:49:06;2.92;;;0.70;;
23232;SDS011;11785;49.500;8.288;2023-12-29T10:51:36;3.08;;;0.90;;
23232;SDS011;11785;49.500;8.288;2023-12-29T10:54:03;1.58;;;1.10;;
23232;SDS011;11785;49.500;8.288;2023-12-29T10:56:29;1.77;;;0.80;;
23232;SDS011;11785;49.500;8.288;2023-12-29T10:58:59;3.10;;;1.23;;
23232;SDS011;11785;49.500;8.288;2023-12-29T11:01:27;1.80;;;0.80;;
23232;SDS011;11785;49.500;8.288;2023-12-29T11:03:57;1.92;;;1.00;;
23232;SDS011;11785;49.500;8.288;2023-12-29T11:06:25;3.58;;;0.98;;
23232;SDS011;11785;49.500;8.288;2023-12-29T11:08:52;7.13;;;1.33;;
23232;SDS011;11785;49.500;8.288;2023-12-29T11:11:18;4.43;;;1.08;;
23232;SDS011;11785;49.500;8.288;2023-12-29T11:13:45;2.13;;;0.70;;
23232;SDS011;11785;49.500;8.288;2023-12-29T11:16:11;2.95;;;0.80;;
23232;SDS011;11785;49.500;8.288;2023-12-29T11:18:38;1.20;;;0.80;;
23232;SDS011;11785;49.500;8.288;2023-12-29T11:21:06;2.35;;;0.75;;
23232;SDS011;11785;49.500;8.288;2023-12-29T11:23:33;2.28;;;0.80;;
23232;SDS011;11785;49.500;8.288;2023-12-29T11:25:59;2.40;;;0.80;;
23232;SDS011;11785;49.500;8.288;2023-12-29T11:28:25;0.95;;;0.50;;
23232;SDS011;11785;49.500;8.288;2023-12-29T11:30:51;1.10;;;0.90;;
23232;SDS011;11785;49.500;8.288;2023-12-29T11:33:18;1.50;;;1.13;;
23232;SDS011;11785;49.500;8.288;2023-12-29T11:35:50;1.63;;;0.90;;
23232;SDS011;11785;49.500;8.288;2023-12-29T11:38:41;1.55;;;0.85;;
23232;SDS011;11785;49.500;8.288;2023-12-29T11:41:21;3.40;;;1.40;;
23232;SDS011;11785;49.500;8.288;2023-12-29T11:43:57;2.15;;;0.85;;
23232;SDS011;11785;49.500;8.288;2023-12-29T11:46:40;2.95;;;1.00;;
23232;SDS011;11785;49.500;8.288;2023-12-29T11:49:10;4.78;;;0.88;;
23232;SDS011;11785;49.500;8.288;2023-12-29T11:51:39;2.70;;;1.05;;
23232;SDS011;11785;49.500;8.288;2023-12-29T11:54:06;1.25;;;0.70;;
23232;SDS011;11785;49.500;8.288;2023-12-29T11:56:39;1.30;;;0.80;;
23232;SDS011;11785;49.500;8.288;2023-12-29T11:59:16;0.90;;;0.90;;
23232;SDS011;11785;49.500;8.288;2023-12-29T12:01:43;2.28;;;0.85;;
23232;SDS011;11785;49.500;8.288;2023-12-29T12:13:03;0.98;;;0.75;;
23232;SDS011;11785;49.500;8.288;2023-12-29T12:20:23;2.63;;;1.00;;
23232;SDS011;11785;49.500;8.288;2023-12-29T12:22:49;1.48;;;0.70;;
23232;SDS011;11785;49.500;8.288;2023-12-29T12:25:21;1.17;;;0.70;;
23232;SDS011;11785;49.500;8.288;2023-12-29T12:27:48;1.63;;;0.93;;
23232;SDS011;11785;49.500;8.288;2023-12-29T12:30:18;1.95;;;0.70;;
23232;SDS011;11785;49.500;8.288;2023-12-29T12:32:43;1.38;;;0.60;;
23232;SDS011;11785;49.500;8.288;2023-12-29T12:35:15;0.77;;;0.60;;
23232;SDS011;11785;49.500;8.288;2023-12-29T12:37:43;1.38;;;0.80;;
23232;SDS011;11785;49.500;8.288;2023-12-29T12:40:09;1.33;;;0.85;;
23232;SDS011;11785;49.500;8.288;2023-12-29T12:42:38;1.77;;;0.70;;
23232;SDS011;11785;49.500;8.288;2023-12-29T12:45:11;1.92;;;1.02;;
23232;SDS011;11785;49.500;8.288;2023-12-29T12:47:43;1.55;;;0.90;;
23232;SDS011;11785;49.500;8.288;2023-12-29T12:50:11;0.90;;;0.90;;
23232;SDS011;11785;49.500;8.288;2023-12-29T12:52:39;2.72;;;1.10;;
23232;SDS011;11785;49.500;8.288;2023-12-29T12:55:08;1.40;;;1.05;;
23232;SDS011;11785;49.500;8.288;2023-12-29T12:57:35;0.90;;;0.80;;
23232;SDS011;11785;49.500;8.288;2023-12-29T13:00:02;2.92;;;0.70;;
23232;SDS011;11785;49.500;8.288;2023-12-29T13:02:30;3.00;;;0.98;;
23232;SDS011;11785;49.500;8.288;2023-12-29T13:04:57;0.70;;;0.70;;
23232;SDS011;11785;49.500;8.288;2023-12-29T13:07:23;1.83;;;0.90;;
23232;SDS011;11785;49.500;8.288;2023-12-29T13:09:49;1.40;;;0.93;;
23232;SDS011;11785;49.500;8.288;2023-12-29T13:12:17;0.70;;;0.70;;
23232;SDS011;11785;49.500;8.288;2023-12-29T13:14:43;1.30;;;0.98;;
23232;SDS011;11785;49.500;8.288;2023-12-29T13:17:11;1.40;;;0.90;;
23232;SDS011;11785;49.500;8.288;2023-12-29T13:19:39;1.10;;;0.95;;
23232;SDS011;11785;49.500;8.288;2023-12-29T13:22:06;1.58;;;1.05;;
23232;SDS011;11785;49.500;8.288;2023-12-29T13:24:33;1.33;;;1.00;;
23232;SDS011;11785;49.500;8.288;2023-12-29T13:27:03;1.23;;;1.00;;
23232;SDS011;11785;49.500;8.288;2023-12-29T13:29:30;2.13;;;1.10;;
23232;SDS011;11785;49.500;8.288;2023-12-29T13:32:00;3.28;;;1.00;;
23232;SDS011;11785;49.500;8.288;2023-12-29T13:34:47;1.08;;;0.98;;
23232;SDS011;11785;49.500;8.288;2023-12-29T13:37:31;1.42;;;1.20;;
23232;SDS011;11785;49.500;8.288;2023-12-29T13:40:03;1.55;;;1.10;;
23232;SDS011;11785;49.500;8.288;2023-12-29T13:42:49;1.13;;;1.02;;
23232;SDS011;11785;49.500;8.288;2023-12-29T13:45:20;4.22;;;1.50;;
23232;SDS011;11785;49.500;8.288;2023-12-29T13:47:46;1.15;;;0.80;;
23232;SDS011;11785;49.500;8.288;2023-12-29T13:50:12;1.65;;;1.10;;
23232;SDS011;11785;49.500;8.288;2023-12-29T13:52:37;3.47;;;1.10;;
23232;SDS011;11785;49.500;8.288;2023-12-29T13:55:04;3.78;;;0.90;;
23232;SDS011;11785;49.500;8.288;2023-12-29T13:57:33;1.13;;;0.95;;
23232;SDS011;11785;49.500;8.288;2023-12-29T14:00:18;1.65;;;0.90;;
23232;SDS011;11785;49.500;8.288;2023-12-29T14:10:34;1.00;;;0.90;;
23232;SDS011;11785;49.500;8.288;2023-12-29T14:15:40;4.10;;;0.90;;
23232;SDS011;11785;49.500;8.288;2023-12-29T14:21:28;1.90;;;0.90;;
23232;SDS011;11785;49.500;8.288;2023-12-29T14:24:12;2.45;;;0.77;;
23232;SDS011;11785;49.500;8.288;2023-12-29T14:26:42;1.15;;;0.70;;
23232;SDS011;11785;49.500;8.288;2023-12-29T14:29:17;2.85;;;0.57;;
23232;SDS011;11785;49.500;8.288;2023-12-29T14:31:43;1.20;;;0.80;;
23232;SDS011;11785;49.500;8.288;2023-12-29T14:34:10;2.75;;;0.80;;
23232;SDS011;11785;49.500;8.288;2023-12-29T14:36:37;1.33;;;1.10;;
23232;SDS011;11785;49.500;8.288;2023-12-29T14:39:04;1.65;;;0.93;;
23232;SDS011;11785;49.500;8.288;2023-12-29T14:41:31;3.03;;;1.95;;
23232;SDS011;11785;49.500;8.288;2023-12-29T14:43:57;2.47;;;0.85;;
23232;SDS011;11785;49.500;8.288;2023-12-29T14:46:22;1.30;;;1.05;;
23232;SDS011;11785;49.500;8.288;2023-12-29T14:48:48;1.75;;;0.90;;
23232;SDS011;11785;49.500;8.288;2023-12-29T14:51:14;1.60;;;0.80;;
23232;SDS011;11785;49.500;8.288;2023-12-29T14:53:44;0.93;;;0.75;;
23232;SDS011;11785;49.500;8.288;2023-12-29T14:56:12;1.30;;;0.80;;
23232;SDS011;11785;49.500;8.288;2023-12-29T14:58:38;1.05;;;0.80;;
23232;SDS011;11785;49.500;8.288;2023-12-29T15:01:05;3.35;;;1.10;;
23232;SDS011;11785;49.500;8.288;2023-12-29T15:03:31;1.08;;;0.98;;
23232;SDS011;11785;49.500;8.288;2023-12-29T15:05:57;2.30;;;0.82;;
23232;SDS011;11785;49.500;8.288;2023-12-29T15:08:24;2.17;;;0.88;;
23232;SDS011;11785;49.500;8.288;2023-12-29T15:10:50;3.70;;;0.80;;
23232;SDS011;11785;49.500;8.288;2023-12-29T15:13:15;1.77;;;0.90;;
23232;SDS011;11785;49.500;8.288;2023-12-29T15:15:41;2.30;;;1.13;;
23232;SDS011;11785;49.500;8.288;2023-12-29T15:18:07;4.50;;;1.00;;
23232;SDS011;11785;49.500;8.288;2023-12-29T15:20:33;2.20;;;1.60;;
23232;SDS011;11785;49.500;8.288;2023-12-29T15:22:58;3.05;;;1.20;;